createdAt,value
2018-06-21T11:25:00.806Z,25.40
2018-06-21T11:27:30.841Z,27.80
2018-06-21T11:30:00.230Z,27.80
2018-06-21T11:32:35.526Z,27.40
2018-06-21T11:35:04.970Z,27.60
2018-06-21T11:37:34.574Z,27.50
2018-06-21T11:40:05.178Z,27.10
2018-06-21T11:42:34.618Z,27.40
2018-06-21T11:45:04.106Z,27.60
2018-06-21T11:47:33.582Z,28.30
2018-06-21T11:50:04.022Z,28.70
2018-06-21T11:52:33.949Z,28.40
2018-06-21T11:55:03.138Z,28.90
2018-06-21T11:57:33.258Z,28.20
2018-06-21T12:00:04.686Z,27.50
2018-06-21T12:02:33.831Z,26.60
2018-06-21T12:07:31.772Z,26.90
2018-06-21T12:10:08.548Z,26.50
2018-06-21T12:12:37.649Z,27.30
2018-06-21T12:15:19.880Z,27.30
2018-06-21T12:17:49.005Z,27.10
2018-06-21T12:20:18.175Z,28.00
2018-06-21T12:22:47.353Z,28.90
2018-06-21T12:25:16.497Z,28.60
2018-06-21T12:27:45.987Z,27.70
2018-06-21T12:30:16.514Z,27.60
2018-06-21T12:32:45.966Z,27.70
2018-06-21T12:35:16.014Z,28.10
2018-06-21T12:37:45.528Z,28.50
2018-06-21T12:40:21.175Z,27.50
2018-06-21T12:42:50.794Z,27.00
2018-06-21T12:45:20.261Z,26.60
2018-06-21T12:47:49.669Z,25.50
2018-06-21T12:50:24.515Z,26.20
2018-06-21T12:52:53.957Z,27.20
2018-06-21T12:55:23.482Z,27.50
2018-06-21T12:58:11.818Z,27.50
2018-06-21T13:00:53.262Z,27.50
2018-06-21T13:03:22.881Z,27.90
2018-06-21T13:05:52.278Z,27.40
2018-06-21T13:08:38.598Z,27.50
2018-06-21T13:12:30.122Z,27.80
2018-06-21T13:15:00.024Z,28.10
2018-06-21T13:17:30.554Z,27.90
2018-06-21T13:20:22.556Z,28.30
2018-06-21T13:25:45.625Z,28.30
2018-06-21T13:28:16.610Z,28.80
2018-06-21T13:30:59.369Z,28.90
2018-06-21T13:33:29.151Z,28.00
2018-06-21T13:35:58.529Z,27.40
2018-06-21T13:38:30.282Z,27.60
2018-06-21T13:41:11.359Z,27.30
2018-06-21T13:43:40.673Z,26.70
2018-06-21T13:46:10.095Z,26.70
2018-06-21T13:48:39.615Z,27.20
2018-06-21T13:51:11.014Z,26.40
2018-06-21T13:53:40.456Z,26.50
2018-06-21T13:56:09.819Z,26.00
2018-06-21T13:58:39.236Z,25.70
2018-06-21T14:01:20.322Z,26.00
2018-06-21T14:03:49.694Z,25.60
2018-06-21T14:06:19.167Z,26.10
2018-06-21T14:08:48.538Z,25.40
2018-06-21T14:11:18.966Z,26.10
2018-06-21T14:13:48.366Z,25.50
2018-06-21T14:16:17.863Z,24.30
2018-06-21T14:18:47.275Z,24.60
2018-06-21T14:21:35.777Z,24.20
2018-06-21T14:24:11.022Z,23.30
2018-06-21T14:29:09.918Z,23.90
2018-06-21T14:32:32.414Z,23.40
2018-06-21T14:35:01.895Z,24.10
2018-06-21T14:37:31.310Z,24.30
2018-06-21T14:40:01.813Z,24.60
2018-06-21T14:42:31.240Z,24.10
2018-06-21T14:45:00.609Z,23.90
2018-06-21T14:47:30.009Z,23.50
2018-06-21T14:50:08.818Z,24.30
2018-06-21T14:52:38.254Z,25.40
2018-06-21T14:55:07.738Z,25.60
2018-06-21T14:57:37.153Z,26.80
2018-06-21T15:00:08.573Z,26.40
2018-06-21T15:02:38.011Z,26.70
2018-06-21T15:05:07.529Z,26.10
2018-06-21T15:07:36.873Z,27.00
2018-06-21T15:10:24.016Z,28.00
2018-06-21T15:12:53.426Z,28.30
2018-06-21T15:15:22.850Z,28.80
2018-06-21T15:17:52.233Z,28.10
2018-06-21T15:20:21.854Z,27.80
2018-06-21T15:22:51.249Z,28.30
2018-06-21T15:25:20.501Z,28.00
2018-06-21T15:27:49.943Z,27.10
2018-06-21T15:30:28.825Z,27.10
2018-06-21T15:32:58.217Z,27.50
2018-06-21T15:35:27.673Z,27.00
2018-06-21T15:37:57.010Z,28.20
2018-06-21T15:40:51.155Z,27.80
2018-06-21T15:43:20.694Z,28.40
2018-06-21T15:45:50.126Z,29.40
2018-06-21T15:48:19.549Z,29.30
2018-06-21T15:51:43.510Z,28.00
2018-06-21T15:54:19.393Z,28.80
2018-06-21T15:56:48.878Z,29.50
2018-06-21T15:59:18.394Z,29.40
2018-06-21T16:01:48.829Z,29.60
2018-06-21T16:04:18.292Z,29.90
2018-06-21T16:06:47.638Z,30.20
2018-06-21T16:09:17.061Z,28.90
2018-06-21T16:12:01.568Z,29.60
2018-06-21T16:14:30.949Z,29.50
2018-06-21T16:17:00.021Z,29.10
2018-06-21T16:19:29.221Z,29.30
2018-06-21T16:21:58.593Z,29.60
2018-06-21T16:24:28.079Z,28.70
2018-06-21T16:26:57.225Z,27.30
2018-06-21T16:29:26.542Z,27.70
2018-06-21T16:31:55.798Z,27.70
2018-06-21T16:34:25.262Z,27.80
2018-06-21T16:36:54.685Z,28.10
2018-06-21T16:39:24.109Z,28.60
2018-06-21T16:42:12.015Z,28.10
2018-06-21T16:44:41.518Z,28.10
2018-06-21T16:47:10.951Z,28.10
2018-06-21T16:49:54.518Z,28.00
2018-06-21T16:52:23.874Z,27.70
2018-06-21T16:54:53.262Z,27.60
2018-06-21T16:57:22.679Z,27.00
2018-06-21T16:59:52.111Z,27.60
2018-06-21T17:02:21.553Z,26.30
2018-06-21T17:04:50.928Z,25.50
2018-06-21T17:07:20.313Z,24.80
2018-06-21T17:09:50.856Z,24.50
2018-06-21T17:12:20.237Z,23.60
2018-06-21T17:14:49.585Z,23.10
2018-06-21T17:17:18.935Z,22.70
2018-06-21T17:20:02.062Z,22.60
2018-06-21T17:22:31.393Z,22.40
2018-06-21T17:30:05.481Z,22.40
2018-06-21T17:32:34.914Z,22.10
2018-06-21T17:35:04.249Z,21.90
2018-06-21T17:37:33.670Z,21.80
2018-06-21T17:40:12.182Z,22.00
2018-06-21T17:42:41.526Z,21.70
2018-06-21T17:45:10.901Z,21.30
2018-06-21T17:47:40.310Z,21.30
2018-06-21T17:50:18.982Z,21.30
2018-06-21T17:52:48.324Z,21.40
2018-06-21T17:55:17.666Z,21.30
2018-06-21T17:57:47.120Z,21.30
2018-06-21T18:04:12.673Z,20.90
2018-06-21T18:06:42.251Z,20.60
2018-06-21T18:09:11.774Z,20.50
2018-06-21T18:11:41.206Z,20.40
2018-06-21T18:14:10.575Z,20.30
2018-06-21T18:16:39.950Z,20.10
2018-06-21T18:19:09.377Z,20.00
2018-06-21T18:21:53.506Z,20.20
2018-06-21T18:24:22.948Z,20.10
2018-06-21T18:26:52.656Z,20.00
2018-06-21T18:29:22.174Z,20.10
2018-06-21T18:31:53.622Z,19.80
2018-06-21T18:36:52.066Z,19.70
2018-06-21T18:39:21.478Z,19.60
2018-06-21T18:42:11.777Z,19.70
2018-06-21T18:44:41.202Z,19.60
2018-06-21T18:47:10.690Z,19.40
2018-06-21T18:50:12.010Z,19.40
2018-06-21T18:52:41.486Z,19.40
2018-06-21T18:55:10.776Z,19.20
2018-06-21T18:57:40.141Z,19.10
2018-06-21T19:00:33.301Z,18.90
2018-06-21T19:03:02.658Z,18.80
2018-06-21T19:05:32.042Z,18.70
2018-06-21T19:11:49.213Z,18.60
2018-06-21T19:14:18.593Z,18.60
2018-06-21T19:16:47.974Z,18.60
2018-06-21T19:19:17.395Z,18.30
2018-06-21T19:22:10.438Z,18.30
2018-06-21T19:24:39.821Z,18.20
2018-06-21T19:27:08.940Z,18.00
2018-06-21T19:29:57.513Z,18.00
2018-06-21T19:32:26.564Z,17.80
2018-06-21T19:34:55.629Z,17.60
2018-06-21T19:37:24.773Z,17.40
2018-06-21T19:39:55.909Z,17.20
2018-06-21T19:42:25.185Z,17.30
2018-06-21T19:44:58.215Z,17.20
2018-06-21T19:48:07.193Z,17.30
2018-06-21T19:50:44.398Z,17.00
2018-06-21T19:53:13.807Z,16.90
2018-06-21T19:55:43.222Z,17.00
2018-06-21T19:58:12.573Z,17.00
2018-06-21T20:00:49.118Z,17.00
2018-06-21T20:03:18.517Z,16.70
2018-06-21T20:05:47.866Z,16.70
2018-06-21T20:08:17.214Z,16.70
2018-06-21T20:10:50.757Z,16.70
2018-06-21T20:13:20.150Z,16.60
2018-06-21T20:15:52.161Z,16.60
2018-06-21T20:18:22.372Z,16.60
2018-06-21T20:21:04.230Z,16.50
2018-06-21T20:26:02.618Z,16.30
2018-06-21T20:28:32.038Z,16.30
2018-06-21T20:31:12.161Z,16.30
2018-06-21T20:33:42.758Z,16.20
2018-06-21T20:36:12.923Z,16.10
2018-06-21T20:38:42.443Z,15.70
2018-06-21T20:41:17.058Z,15.70
2018-06-21T20:43:46.410Z,15.60
2018-06-21T20:46:15.814Z,15.60
2018-06-21T20:48:45.432Z,15.40
2018-06-21T20:53:52.841Z,15.40
2018-06-21T20:56:22.413Z,15.40
2018-06-21T20:58:51.742Z,15.30
2018-06-21T21:01:32.790Z,15.30
2018-06-21T21:04:02.205Z,15.20
2018-06-21T21:06:31.655Z,14.90
2018-06-21T21:09:01.014Z,14.90
2018-06-21T21:11:35.486Z,14.70
2018-06-21T21:14:04.882Z,14.80
2018-06-21T21:16:35.361Z,14.80
2018-06-21T21:19:04.752Z,14.70
2018-06-21T21:25:13.509Z,14.50
2018-06-21T21:27:42.853Z,14.40
2018-06-21T21:30:16.321Z,14.30
2018-06-21T21:35:14.922Z,14.20
2018-06-21T21:37:44.233Z,14.10
2018-06-21T21:40:24.110Z,14.10
2018-06-21T21:42:53.473Z,14.10
2018-06-21T21:45:22.946Z,14.00
2018-06-21T21:47:52.369Z,13.90
2018-06-21T21:50:26.573Z,13.90
2018-06-21T21:52:55.692Z,13.90
2018-06-21T21:55:24.761Z,13.80
2018-06-21T21:57:53.864Z,13.80
2018-06-21T22:00:48.069Z,13.60
2018-06-21T22:03:17.225Z,13.60
2018-06-21T22:05:46.361Z,13.50
2018-06-21T22:08:15.446Z,13.50
2018-06-21T22:10:52.605Z,13.30
2018-06-21T22:13:21.665Z,13.40
2018-06-21T22:18:19.665Z,13.20
2018-06-21T22:20:52.521Z,13.00
2018-06-21T22:23:21.682Z,13.00
2018-06-21T22:25:50.849Z,13.00
2018-06-21T22:28:19.954Z,13.00
2018-06-21T22:30:51.110Z,12.90
2018-06-21T22:33:20.269Z,12.90
2018-06-21T22:35:49.353Z,12.80
2018-06-21T22:38:18.421Z,12.70
2018-06-21T22:40:48.594Z,12.60
2018-06-21T22:43:17.911Z,12.50
2018-06-21T22:45:47.330Z,12.50
2018-06-21T22:50:47.776Z,12.10
2018-06-21T22:53:17.174Z,12.20
2018-06-21T22:55:46.594Z,12.20
2018-06-21T22:58:16.066Z,12.20
2018-06-21T23:00:46.470Z,12.10
2018-06-21T23:03:15.914Z,12.00
2018-06-21T23:05:45.230Z,12.00
2018-06-21T23:08:14.646Z,11.80
2018-06-21T23:11:19.542Z,11.80
2018-06-21T23:13:48.954Z,11.80
2018-06-21T23:19:04.600Z,11.80
2018-06-21T23:22:00.215Z,11.80
2018-06-21T23:24:29.653Z,11.80
2018-06-21T23:26:59.082Z,11.70
2018-06-21T23:29:28.446Z,11.70
2018-06-21T23:31:57.798Z,11.80
2018-06-21T23:34:27.262Z,11.20
2018-06-21T23:36:56.659Z,11.00
2018-06-21T23:56:58.418Z,11.20
2018-06-21T23:59:29.888Z,11.40
